< < Back
Terminal Aerodrome Forecast


Current Version              Previous Versions:   1  2  3  4  5  6  7  8  9  

Terminal Aerodrome Forecast

734
FTUS42 KTAE 021730
TAFDHN
TAF
KDHN 021730Z 0218/0318 18010KT P6SM VCTS BKN050CB OVC100
      TEMPO 0220/0224 5SM -TSRA BKN035CB
     FM030200 24006KT P6SM SCT050 BKN100
     FM030600 22005KT 5SM BR OVC007
     FM031400 25010KT P6SM VCTS BKN030CB=

Latest METAR

540
SAUS70 KWBC 021900 RRB
MTRDHN
METAR KDHN 021853Z 21011KT 10SM SCT038 31/20 A3002 RMK AO2 SLP160
T03060200


USA.gov is the U.S. government's official web portal to all federal, state and local government web resources and services.